createdAt,value
2023-04-12T00:01:02.482Z,2.92
2023-04-12T00:03:29.250Z,2.10
2023-04-12T00:05:56.291Z,1.67
2023-04-12T00:08:26.675Z,1.73
2023-04-12T00:10:53.534Z,1.98
2023-04-12T00:13:20.745Z,1.75
2023-04-12T00:15:47.398Z,1.60
2023-04-12T00:18:14.121Z,1.90
2023-04-12T00:20:41.130Z,1.95
2023-04-12T00:23:09.815Z,1.70
2023-04-12T00:25:38.553Z,1.65
2023-04-12T00:28:06.463Z,1.92
2023-04-12T00:30:33.307Z,1.92
2023-04-12T00:32:59.976Z,1.80
2023-04-12T00:35:26.744Z,1.67
2023-04-12T00:37:53.596Z,1.63
2023-04-12T00:40:20.314Z,1.85
2023-04-12T00:42:47.004Z,2.03
2023-04-12T00:45:14.347Z,1.95
2023-04-12T00:47:43.408Z,2.00
2023-04-12T00:50:10.977Z,2.10
2023-04-12T00:52:37.817Z,1.70
2023-04-12T00:55:05.436Z,1.90
2023-04-12T00:57:36.673Z,1.30
2023-04-12T01:00:06.181Z,2.47
2023-04-12T01:02:34.810Z,2.13
2023-04-12T01:05:02.897Z,2.10
2023-04-12T01:07:54.380Z,2.00
2023-04-12T01:10:39.998Z,1.88
2023-04-12T01:13:28.922Z,2.28
2023-04-12T01:16:24.621Z,2.00
2023-04-12T01:18:52.051Z,2.50
2023-04-12T01:21:31.303Z,2.47
2023-04-12T01:24:23.393Z,1.98
2023-04-12T01:26:51.982Z,2.33
2023-04-12T01:29:21.673Z,2.13
2023-04-12T01:31:59.326Z,2.28
2023-04-12T01:34:29.081Z,2.20
2023-04-12T01:36:58.392Z,2.97
2023-04-12T01:39:25.825Z,2.10
2023-04-12T01:41:52.360Z,2.03
2023-04-12T01:44:19.285Z,2.35
2023-04-12T01:46:47.602Z,2.30
2023-04-12T01:49:19.087Z,2.42
2023-04-12T01:51:48.973Z,2.50
2023-04-12T01:54:30.571Z,2.10
2023-04-12T01:57:02.015Z,2.10
2023-04-12T01:59:32.917Z,2.47
2023-04-12T02:01:59.589Z,2.20
2023-04-12T02:04:27.933Z,1.95
2023-04-12T02:06:54.844Z,2.28
2023-04-12T02:09:22.785Z,2.08
2023-04-12T02:11:50.026Z,1.88
2023-04-12T02:14:17.527Z,2.33
2023-04-12T02:16:44.808Z,2.35
2023-04-12T02:19:14.693Z,2.47
2023-04-12T02:21:46.054Z,2.45
2023-04-12T02:24:13.295Z,2.33
2023-04-12T02:26:40.265Z,2.58
2023-04-12T02:29:09.171Z,2.25
2023-04-12T02:31:36.776Z,1.73
2023-04-12T02:34:03.384Z,2.47
2023-04-12T02:36:29.965Z,2.28
2023-04-12T02:38:56.709Z,2.00
2023-04-12T02:41:24.392Z,2.00
2023-04-12T02:43:51.242Z,2.03
2023-04-12T02:46:22.823Z,2.13
2023-04-12T02:48:50.375Z,1.58
2023-04-12T02:51:17.318Z,1.80
2023-04-12T02:53:43.943Z,1.70
2023-04-12T02:56:10.995Z,2.00
2023-04-12T02:58:37.998Z,1.48
2023-04-12T03:01:07.876Z,1.60
2023-04-12T03:03:35.733Z,1.50
2023-04-12T03:06:02.655Z,2.28
2023-04-12T03:08:29.249Z,1.63
2023-04-12T03:10:56.947Z,1.73
2023-04-12T03:13:23.891Z,1.65
2023-04-12T03:15:57.339Z,1.95
2023-04-12T03:18:24.127Z,1.40
2023-04-12T03:20:52.467Z,1.90
2023-04-12T03:23:20.221Z,1.92
2023-04-12T03:25:46.925Z,2.30
2023-04-12T03:28:13.536Z,1.48
2023-04-12T03:30:40.154Z,1.83
2023-04-12T03:33:06.813Z,1.58
2023-04-12T03:35:33.490Z,2.17
2023-04-12T03:38:00.606Z,1.42
2023-04-12T03:40:27.169Z,2.15
2023-04-12T03:42:53.858Z,1.88
2023-04-12T03:45:20.427Z,1.80
2023-04-12T03:47:47.272Z,1.80
2023-04-12T03:50:13.851Z,1.63
2023-04-12T03:52:40.500Z,1.80
2023-04-12T03:55:08.042Z,1.70
2023-04-12T03:57:35.271Z,1.50
2023-04-12T04:00:02.499Z,1.52
2023-04-12T04:02:29.446Z,2.10
2023-04-12T04:04:56.382Z,1.83
2023-04-12T04:07:23.302Z,1.55
2023-04-12T04:09:50.324Z,1.77
2023-04-12T04:12:17.105Z,1.75
2023-04-12T04:14:44.221Z,1.45
2023-04-12T04:17:11.337Z,2.22
2023-04-12T04:19:38.610Z,2.28
2023-04-12T04:22:05.288Z,2.00
2023-04-12T04:24:31.869Z,2.10
2023-04-12T04:26:58.797Z,1.90
2023-04-12T04:29:26.185Z,2.10
2023-04-12T04:31:53.958Z,1.50
2023-04-12T04:34:22.155Z,1.63
2023-04-12T04:36:48.945Z,1.60
2023-04-12T04:39:15.902Z,1.92
2023-04-12T04:41:42.596Z,2.17
2023-04-12T04:44:09.614Z,2.13
2023-04-12T04:46:39.705Z,2.00
2023-04-12T04:49:06.876Z,1.67
2023-04-12T04:51:33.567Z,1.73
2023-04-12T04:54:00.359Z,1.75
2023-04-12T04:56:27.086Z,2.17
2023-04-12T04:58:56.275Z,1.98
2023-04-12T05:01:28.363Z,1.60
2023-04-12T05:03:56.007Z,1.95
2023-04-12T05:06:23.139Z,2.20
2023-04-12T05:08:49.759Z,2.10
2023-04-12T05:11:16.411Z,2.17
2023-04-12T05:13:42.980Z,2.10
2023-04-12T05:16:10.183Z,2.08
2023-04-12T05:18:37.090Z,1.77
2023-04-12T05:21:05.450Z,2.10
2023-04-12T05:23:43.112Z,1.95
2023-04-12T05:26:09.710Z,2.00
2023-04-12T05:28:36.347Z,2.00
2023-04-12T05:31:03.161Z,2.70
2023-04-12T05:33:31.586Z,1.75
2023-04-12T05:35:59.522Z,2.40
2023-04-12T05:38:26.154Z,1.85
2023-04-12T05:40:52.694Z,2.42
2023-04-12T05:43:19.230Z,2.08
2023-04-12T05:45:46.182Z,2.60
2023-04-12T05:48:13.864Z,2.50
2023-04-12T05:50:40.723Z,1.92
2023-04-12T05:53:07.413Z,2.55
2023-04-12T05:55:35.882Z,2.35
2023-04-12T05:58:03.924Z,2.47
2023-04-12T06:00:30.604Z,2.28
2023-04-12T06:02:58.503Z,2.42
2023-04-12T06:05:25.379Z,1.98
2023-04-12T06:07:52.038Z,2.20
2023-04-12T06:10:18.931Z,2.83
2023-04-12T06:12:45.592Z,2.40
2023-04-12T06:15:12.237Z,1.95
2023-04-12T06:17:38.958Z,2.28
2023-04-12T06:20:09.747Z,2.00
2023-04-12T06:22:37.423Z,2.70
2023-04-12T06:25:04.812Z,2.50
2023-04-12T06:27:31.915Z,1.90
2023-04-12T06:29:59.683Z,2.13
2023-04-12T06:32:26.466Z,2.42
2023-04-12T06:34:53.213Z,2.15
2023-04-12T06:37:21.526Z,1.92
2023-04-12T06:39:48.090Z,2.13
2023-04-12T06:42:15.771Z,2.45
2023-04-12T06:44:42.445Z,2.50
2023-04-12T06:47:09.505Z,2.38
2023-04-12T06:49:36.189Z,2.00
2023-04-12T06:52:03.082Z,2.47
2023-04-12T06:54:29.793Z,2.78
2023-04-12T06:56:57.710Z,2.38
2023-04-12T06:59:24.547Z,2.95
2023-04-12T07:01:51.221Z,2.10
2023-04-12T07:04:18.111Z,2.20
2023-04-12T07:06:44.851Z,2.58
2023-04-12T07:09:11.541Z,2.75
2023-04-12T07:11:38.158Z,2.45
2023-04-12T07:14:04.875Z,2.92
2023-04-12T07:16:32.674Z,2.50
2023-04-12T07:19:00.515Z,2.67
2023-04-12T07:21:28.299Z,2.10
2023-04-12T07:23:55.880Z,1.85
2023-04-12T07:26:23.475Z,2.45
2023-04-12T07:28:50.367Z,2.67
2023-04-12T07:31:17.230Z,2.60
2023-04-12T07:33:44.976Z,2.70
2023-04-12T07:36:12.161Z,2.55
2023-04-12T07:38:38.893Z,2.42
2023-04-12T07:41:05.610Z,2.67
2023-04-12T07:43:32.283Z,3.28
2023-04-12T07:45:59.427Z,2.50
2023-04-12T07:48:26.363Z,2.35
2023-04-12T07:50:53.078Z,2.85
2023-04-12T07:53:25.238Z,2.47
2023-04-12T07:55:52.620Z,2.13
2023-04-12T07:58:19.903Z,2.38
2023-04-12T08:00:46.857Z,2.78
2023-04-12T08:03:15.210Z,2.10
2023-04-12T08:05:42.244Z,2.03
2023-04-12T08:08:12.273Z,1.98
2023-04-12T08:10:39.860Z,2.60
2023-04-12T08:13:07.093Z,2.47
2023-04-12T08:15:33.768Z,2.10
2023-04-12T08:18:01.112Z,2.03
2023-04-12T08:20:27.992Z,2.20
2023-04-12T08:22:54.994Z,2.45
2023-04-12T08:25:22.497Z,2.25
2023-04-12T08:27:50.869Z,1.88
2023-04-12T08:30:18.487Z,2.50
2023-04-12T08:32:45.397Z,2.15
2023-04-12T08:35:12.191Z,2.10
2023-04-12T08:37:38.924Z,2.63
2023-04-12T08:40:08.211Z,2.13
2023-04-12T08:42:38.508Z,2.08
2023-04-12T08:45:06.853Z,2.20
2023-04-12T08:47:39.432Z,1.80
2023-04-12T08:50:09.881Z,2.25
2023-04-12T08:52:38.001Z,1.95
2023-04-12T08:55:07.557Z,2.47
2023-04-12T08:57:41.266Z,1.80
2023-04-12T09:00:10.335Z,2.30
2023-04-12T09:02:38.425Z,2.13
2023-04-12T09:05:06.794Z,2.13
2023-04-12T09:07:34.232Z,2.35
2023-04-12T09:10:01.164Z,2.00
2023-04-12T09:12:28.130Z,2.25
2023-04-12T09:15:08.576Z,1.70
2023-04-12T09:17:39.363Z,1.70
2023-04-12T09:20:24.071Z,1.80
2023-04-12T09:22:50.694Z,1.70
2023-04-12T09:25:20.036Z,1.80
2023-04-12T09:27:54.341Z,2.10
2023-04-12T09:30:21.099Z,1.85
2023-04-12T09:32:51.251Z,1.90
2023-04-12T09:35:18.096Z,2.13
2023-04-12T09:37:44.769Z,1.52
2023-04-12T09:40:11.686Z,1.90
2023-04-12T09:42:54.445Z,2.03
2023-04-12T09:45:26.086Z,1.55
2023-04-12T09:47:54.181Z,2.00
2023-04-12T09:50:29.106Z,1.77
2023-04-12T09:52:57.792Z,1.95
2023-04-12T09:55:26.443Z,1.75
2023-04-12T09:57:54.290Z,2.00
2023-04-12T10:00:23.699Z,1.92
2023-04-12T10:02:55.975Z,1.65
2023-04-12T10:05:28.425Z,2.00
2023-04-12T10:07:56.823Z,1.70
2023-04-12T10:10:23.928Z,2.10
2023-04-12T10:12:51.123Z,1.92
2023-04-12T10:15:18.730Z,1.67
2023-04-12T10:17:51.625Z,2.40
2023-04-12T10:20:20.369Z,2.15
2023-04-12T10:22:53.767Z,2.20
2023-04-12T10:25:22.285Z,1.80
2023-04-12T10:27:49.840Z,1.92
2023-04-12T10:30:29.738Z,1.90
2023-04-12T10:33:02.491Z,2.00
2023-04-12T10:35:30.637Z,2.58
2023-04-12T10:37:58.051Z,2.70
2023-04-12T10:40:24.672Z,2.03
2023-04-12T10:43:22.966Z,2.85
2023-04-12T10:45:50.038Z,2.55
2023-04-12T10:48:29.676Z,2.50
2023-04-12T10:51:28.717Z,2.45
2023-04-12T10:54:07.636Z,1.08
2023-04-12T10:56:42.263Z,1.10
2023-04-12T10:59:10.160Z,1.30
2023-04-12T11:01:38.962Z,1.27
2023-04-12T11:04:21.056Z,1.65
2023-04-12T11:06:48.582Z,2.08
2023-04-12T11:09:30.286Z,2.03
2023-04-12T11:12:03.762Z,1.40
2023-04-12T11:14:52.142Z,1.30
2023-04-12T11:17:20.498Z,1.40
2023-04-12T11:19:50.146Z,1.95
2023-04-12T11:22:18.419Z,2.08
2023-04-12T11:24:50.257Z,1.63
2023-04-12T11:27:18.874Z,2.10
2023-04-12T11:29:49.043Z,2.20
2023-04-12T11:32:15.798Z,2.00
2023-04-12T11:34:44.729Z,2.90
2023-04-12T11:37:11.543Z,1.90
2023-04-12T11:39:46.083Z,1.70
2023-04-12T11:42:21.176Z,2.08
2023-04-12T11:44:57.262Z,2.03
2023-04-12T11:47:27.744Z,1.83
2023-04-12T11:49:56.416Z,3.85
2023-04-12T11:52:30.362Z,2.40
2023-04-12T11:54:59.269Z,2.97
2023-04-12T11:57:26.235Z,2.58
2023-04-12T11:59:53.711Z,2.38
2023-04-12T12:02:23.738Z,2.40
2023-04-12T12:04:51.465Z,1.60
2023-04-12T12:07:21.547Z,1.92
2023-04-12T12:09:49.172Z,1.97
2023-04-12T12:12:16.228Z,2.00
2023-04-12T12:14:44.625Z,2.00
2023-04-12T12:17:14.027Z,2.17
2023-04-12T12:19:42.575Z,1.73
2023-04-12T12:22:15.180Z,1.85
2023-04-12T12:24:46.960Z,1.88
2023-04-12T12:27:17.620Z,1.20
2023-04-12T12:29:44.525Z,1.10
2023-04-12T12:32:14.960Z,1.27
2023-04-12T12:34:42.042Z,1.75
2023-04-12T12:37:10.674Z,1.23
2023-04-12T12:39:37.405Z,1.48
2023-04-12T12:42:06.419Z,1.30
2023-04-12T12:44:36.351Z,1.25
2023-04-12T12:47:13.525Z,1.88
2023-04-12T12:49:41.009Z,1.50
2023-04-12T12:52:07.709Z,1.60
2023-04-12T12:54:40.719Z,2.47
2023-04-12T12:57:07.998Z,1.60
2023-04-12T12:59:34.868Z,1.98
2023-04-12T13:02:01.655Z,2.10
2023-04-12T13:04:28.992Z,1.38
2023-04-12T13:06:55.786Z,1.80
2023-04-12T13:09:22.394Z,2.00
2023-04-12T13:11:49.615Z,1.70
2023-04-12T13:14:16.805Z,1.63
2023-04-12T13:16:43.473Z,2.10
2023-04-12T13:19:10.125Z,1.88
2023-04-12T13:21:36.744Z,2.67
2023-04-12T13:24:03.708Z,2.83
2023-04-12T13:26:31.399Z,2.30
2023-04-12T13:28:58.214Z,1.25
2023-04-12T13:31:25.109Z,1.25
2023-04-12T13:33:51.903Z,1.00
2023-04-12T13:36:18.454Z,0.88
2023-04-12T13:38:45.097Z,0.82
2023-04-12T13:41:11.684Z,1.55
2023-04-12T13:43:38.223Z,1.23
2023-04-12T13:46:05.087Z,1.00
2023-04-12T13:48:32.119Z,0.80
2023-04-12T13:50:58.901Z,1.10
2023-04-12T13:53:46.384Z,1.00
2023-04-12T13:56:19.544Z,1.20
2023-04-12T13:58:50.075Z,1.10
2023-04-12T14:01:24.036Z,1.10
2023-04-12T14:06:25.051Z,1.05
2023-04-12T14:08:51.615Z,1.30
2023-04-12T14:11:18.222Z,0.90
2023-04-12T14:13:44.814Z,1.15
2023-04-12T14:16:12.043Z,0.90
2023-04-12T14:18:38.645Z,1.13
2023-04-12T14:21:05.775Z,1.60
2023-04-12T14:23:32.769Z,1.00
2023-04-12T14:25:59.389Z,1.13
2023-04-12T14:28:30.748Z,0.95
2023-04-12T14:30:58.138Z,1.40
2023-04-12T14:33:25.260Z,1.05
2023-04-12T14:35:53.675Z,1.00
2023-04-12T14:38:20.569Z,1.20
2023-04-12T14:40:47.196Z,1.27
2023-04-12T14:43:13.803Z,0.88
2023-04-12T14:45:40.596Z,1.20
2023-04-12T14:48:07.291Z,1.30
2023-04-12T14:50:33.890Z,1.15
2023-04-12T14:53:00.538Z,1.05
2023-04-12T14:55:27.222Z,1.13
2023-04-12T14:57:53.881Z,1.38
2023-04-12T15:00:21.184Z,1.17
2023-04-12T15:02:48.974Z,1.05
2023-04-12T15:05:15.909Z,1.20
2023-04-12T15:07:42.590Z,1.02
2023-04-12T15:10:09.715Z,1.25
2023-04-12T15:12:36.280Z,1.00
2023-04-12T15:15:06.294Z,1.15
2023-04-12T15:17:34.274Z,1.30
2023-04-12T15:20:09.015Z,1.08
2023-04-12T15:22:36.617Z,1.25
2023-04-12T15:25:04.277Z,1.10
2023-04-12T15:27:31.803Z,1.00
2023-04-12T15:29:59.641Z,1.30
2023-04-12T15:32:29.563Z,1.00
2023-04-12T15:34:56.330Z,1.17
2023-04-12T15:37:23.286Z,1.33
2023-04-12T15:39:50.254Z,1.10
2023-04-12T15:42:17.292Z,1.20
2023-04-12T15:44:45.361Z,1.02
2023-04-12T15:47:12.417Z,1.10
2023-04-12T15:49:40.092Z,0.90
2023-04-12T15:52:06.800Z,1.08
2023-04-12T15:54:33.601Z,1.30
2023-04-12T15:57:02.673Z,1.08
2023-04-12T15:59:30.041Z,1.30
2023-04-12T16:01:58.723Z,1.40
2023-04-12T16:04:27.306Z,1.38
2023-04-12T16:06:54.098Z,1.05
2023-04-12T16:09:22.229Z,1.50
2023-04-12T16:11:48.942Z,1.33
2023-04-12T16:14:15.592Z,1.35
2023-04-12T16:16:42.348Z,1.17
2023-04-12T16:19:09.925Z,1.83
2023-04-12T16:21:36.562Z,2.00
2023-04-12T16:24:03.391Z,1.63
2023-04-12T16:26:30.107Z,1.92
2023-04-12T16:28:57.424Z,1.30
2023-04-12T16:31:25.454Z,0.98
2023-04-12T16:33:52.469Z,0.98
2023-04-12T16:36:19.140Z,1.00
2023-04-12T16:38:45.837Z,1.25
2023-04-12T16:41:12.540Z,1.10
2023-04-12T16:43:39.124Z,1.90
2023-04-12T16:46:08.861Z,1.50
2023-04-12T16:48:44.278Z,1.67
2023-04-12T16:51:11.171Z,1.50
2023-04-12T16:53:37.767Z,1.15
2023-04-12T16:56:07.429Z,1.10
2023-04-12T16:58:34.095Z,1.10
2023-04-12T17:01:00.992Z,0.90
2023-04-12T17:03:27.794Z,1.10
2023-04-12T17:05:54.594Z,0.98
2023-04-12T17:08:21.432Z,0.80
2023-04-12T17:10:48.240Z,1.35
2023-04-12T17:13:18.556Z,1.15
2023-04-12T17:15:48.224Z,1.20
2023-04-12T17:18:15.163Z,1.15
2023-04-12T17:20:41.924Z,1.25
2023-04-12T17:23:10.166Z,1.00
2023-04-12T17:25:37.459Z,1.08
2023-04-12T17:28:04.154Z,0.77
2023-04-12T17:30:31.397Z,0.80
2023-04-12T17:33:01.292Z,1.20
2023-04-12T17:35:28.369Z,1.00
2023-04-12T17:37:55.108Z,1.10
2023-04-12T17:40:22.092Z,1.08
2023-04-12T17:42:48.642Z,1.38
2023-04-12T17:45:16.102Z,1.10
2023-04-12T17:47:43.238Z,0.95
2023-04-12T17:50:11.191Z,0.98
2023-04-12T17:52:38.464Z,0.90
2023-04-12T17:55:07.428Z,1.00
2023-04-12T17:57:34.127Z,1.50
2023-04-12T18:00:00.936Z,1.60
2023-04-12T18:02:28.196Z,1.20
2023-04-12T18:04:55.386Z,1.70
2023-04-12T18:07:22.994Z,1.42
2023-04-12T18:09:51.562Z,1.42
2023-04-12T18:12:18.287Z,1.20
2023-04-12T18:14:44.963Z,1.20
2023-04-12T18:17:11.734Z,1.10
2023-04-12T18:19:38.466Z,1.50
2023-04-12T18:22:05.106Z,1.33
2023-04-12T18:24:31.889Z,1.58
2023-04-12T18:26:59.428Z,1.50
2023-04-12T18:29:26.251Z,1.42
2023-04-12T18:31:52.972Z,4.78
2023-04-12T18:34:19.819Z,5.45
2023-04-12T18:36:46.645Z,5.22
2023-04-12T18:39:13.308Z,4.32
2023-04-12T18:41:41.037Z,11.38
2023-04-12T18:44:09.194Z,1.98
2023-04-12T18:46:36.162Z,2.70
2023-04-12T18:49:04.511Z,2.05
2023-04-12T18:51:31.424Z,2.53
2023-04-12T18:53:58.362Z,2.75
2023-04-12T18:56:25.668Z,3.90
2023-04-12T18:58:55.597Z,3.10
2023-04-12T19:01:23.134Z,3.95
2023-04-12T19:03:49.998Z,5.57
2023-04-12T19:06:17.087Z,4.60
2023-04-12T19:08:43.888Z,3.92
2023-04-12T19:11:10.635Z,3.50
2023-04-12T19:13:38.253Z,3.47
2023-04-12T19:16:07.912Z,3.00
2023-04-12T19:18:35.280Z,3.25
2023-04-12T19:21:02.739Z,2.70
2023-04-12T19:23:30.432Z,2.22
2023-04-12T19:25:59.796Z,2.60
2023-04-12T19:28:27.032Z,2.50
2023-04-12T19:30:53.802Z,2.60
2023-04-12T19:33:20.758Z,2.70
2023-04-12T19:35:47.682Z,2.10
2023-04-12T19:38:15.777Z,1.90
2023-04-12T19:40:42.866Z,1.77
2023-04-12T19:43:09.498Z,1.45
2023-04-12T19:45:36.439Z,1.98
2023-04-12T19:48:03.346Z,1.30
2023-04-12T19:50:31.016Z,2.30
2023-04-12T19:52:57.700Z,2.17
2023-04-12T19:55:25.233Z,2.42
2023-04-12T19:57:52.129Z,3.10
2023-04-12T20:00:23.308Z,2.50
2023-04-12T20:05:17.909Z,1.75
2023-04-12T20:07:44.470Z,1.88
2023-04-12T20:10:12.443Z,2.13
2023-04-12T20:12:39.696Z,2.53
2023-04-12T20:15:08.768Z,2.25
2023-04-12T20:17:36.057Z,2.90
2023-04-12T20:20:05.894Z,1.98
2023-04-12T20:22:32.571Z,2.35
2023-04-12T20:25:00.091Z,1.83
2023-04-12T20:27:28.828Z,2.10
2023-04-12T20:29:56.940Z,1.77
2023-04-12T20:32:24.248Z,1.60
2023-04-12T20:34:50.853Z,1.90
2023-04-12T20:37:17.488Z,1.55
2023-04-12T20:39:44.174Z,1.55
2023-04-12T20:42:11.303Z,2.00
2023-04-12T20:44:37.979Z,1.65
2023-04-12T20:47:04.572Z,1.92
2023-04-12T20:49:31.978Z,1.52
2023-04-12T20:51:59.577Z,1.63
2023-04-12T20:54:29.933Z,1.40
2023-04-12T20:56:56.713Z,1.40
2023-04-12T20:59:23.367Z,1.25
2023-04-12T21:01:50.710Z,1.80
2023-04-12T21:04:17.821Z,1.42
2023-04-12T21:06:45.139Z,1.52
2023-04-12T21:09:11.705Z,1.30
2023-04-12T21:11:38.410Z,0.88
2023-04-12T21:14:05.187Z,1.00
2023-04-12T21:16:32.004Z,1.25
2023-04-12T21:18:59.354Z,1.50
2023-04-12T21:21:27.444Z,1.30
2023-04-12T21:23:54.018Z,1.30
2023-04-12T21:26:20.905Z,1.65
2023-04-12T21:28:47.504Z,1.30
2023-04-12T21:31:14.081Z,1.13
2023-04-12T21:33:40.692Z,0.90
2023-04-12T21:36:07.793Z,1.17
2023-04-12T21:38:34.383Z,1.10
2023-04-12T21:41:09.265Z,1.65
2023-04-12T21:43:35.858Z,1.48
2023-04-12T21:46:02.421Z,1.70
2023-04-12T21:48:29.069Z,1.30
2023-04-12T21:50:55.659Z,1.52
2023-04-12T21:53:22.204Z,1.20
2023-04-12T21:55:50.832Z,0.85
2023-04-12T21:58:17.453Z,0.98
2023-04-12T22:00:44.347Z,1.60
2023-04-12T22:03:11.590Z,1.15
2023-04-12T22:05:39.911Z,0.80
2023-04-12T22:08:07.766Z,1.00
2023-04-12T22:10:37.412Z,0.80
2023-04-12T22:13:04.083Z,0.90
2023-04-12T22:15:31.696Z,0.77
2023-04-12T22:17:59.053Z,0.90
2023-04-12T22:20:28.452Z,1.00
2023-04-12T22:22:56.201Z,0.90
2023-04-12T22:25:23.269Z,1.13
2023-04-12T22:27:51.680Z,0.70
2023-04-12T22:30:18.480Z,0.40
2023-04-12T22:32:45.258Z,0.80
2023-04-12T22:35:11.887Z,0.80
2023-04-12T22:37:39.129Z,0.60
2023-04-12T22:40:11.394Z,0.93
2023-04-12T22:42:38.521Z,0.80
2023-04-12T22:45:07.709Z,0.70
2023-04-12T22:47:34.557Z,0.82
2023-04-12T22:50:01.720Z,0.85
2023-04-12T22:52:31.772Z,1.08
2023-04-12T22:54:58.471Z,0.95
2023-04-12T22:57:25.588Z,0.90
2023-04-12T22:59:53.566Z,1.00
2023-04-12T23:02:20.529Z,0.55
2023-04-12T23:04:49.226Z,0.80
2023-04-12T23:07:16.518Z,0.95
2023-04-12T23:09:45.263Z,1.40
2023-04-12T23:12:12.530Z,1.98
2023-04-12T23:14:39.337Z,1.55
2023-04-12T23:17:06.085Z,1.45
2023-04-12T23:19:33.226Z,1.55
2023-04-12T23:21:59.839Z,1.80
2023-04-12T23:24:26.468Z,1.45
2023-04-12T23:26:53.024Z,1.50
2023-04-12T23:29:19.740Z,1.52
2023-04-12T23:31:47.608Z,1.10
2023-04-12T23:34:14.226Z,0.90
2023-04-12T23:36:40.880Z,0.90
2023-04-12T23:39:09.394Z,1.02
2023-04-12T23:41:36.218Z,0.90
2023-04-12T23:44:02.865Z,1.13
2023-04-12T23:46:29.757Z,1.15
2023-04-12T23:48:56.619Z,0.80
2023-04-12T23:51:23.247Z,1.40
2023-04-12T23:53:50.234Z,1.50
2023-04-12T23:56:17.155Z,1.40
2023-04-12T23:58:43.745Z,0.82
